createdAt,value
2023-04-09T00:01:11.197Z,28.70
2023-04-09T00:03:40.640Z,23.10
2023-04-09T00:06:09.099Z,23.80
2023-04-09T00:08:37.461Z,28.70
2023-04-09T00:11:06.150Z,27.10
2023-04-09T00:13:39.168Z,27.10
2023-04-09T00:16:09.039Z,26.80
2023-04-09T00:18:37.644Z,26.00
2023-04-09T00:21:07.217Z,30.70
2023-04-09T00:23:36.546Z,26.40
2023-04-09T00:26:05.013Z,25.30
2023-04-09T00:28:33.598Z,28.40
2023-04-09T00:31:02.729Z,25.90
2023-04-09T00:33:31.417Z,26.80
2023-04-09T00:35:59.801Z,27.50
2023-04-09T00:38:28.202Z,29.90
2023-04-09T00:40:56.754Z,25.80
2023-04-09T00:43:25.525Z,28.20
2023-04-09T00:45:54.211Z,28.20
2023-04-09T00:48:22.993Z,27.90
2023-04-09T00:50:51.465Z,30.70
2023-04-09T00:53:20.083Z,26.10
2023-04-09T00:55:48.588Z,28.70
2023-04-09T00:58:17.216Z,28.50
2023-04-09T01:00:45.806Z,25.70
2023-04-09T01:03:14.547Z,27.50
2023-04-09T01:06:08.113Z,29.40
2023-04-09T01:08:51.756Z,29.50
2023-04-09T01:12:11.586Z,26.20
2023-04-09T01:14:53.413Z,28.20
2023-04-09T01:17:35.943Z,28.50
2023-04-09T01:20:22.916Z,32.20
2023-04-09T01:23:18.271Z,25.80
2023-04-09T01:26:21.700Z,26.90
2023-04-09T01:28:54.972Z,30.50
2023-04-09T01:31:43.789Z,29.50
2023-04-09T01:34:14.197Z,27.90
2023-04-09T01:36:50.385Z,28.40
2023-04-09T01:39:19.417Z,30.40
2023-04-09T01:41:49.189Z,33.70
2023-04-09T01:44:20.380Z,35.50
2023-04-09T01:46:50.038Z,30.20
2023-04-09T01:49:19.013Z,29.80
2023-04-09T01:51:47.584Z,31.40
2023-04-09T01:54:17.001Z,26.70
2023-04-09T01:56:47.846Z,28.20
2023-04-09T01:59:16.252Z,31.70
2023-04-09T02:02:01.359Z,32.00
2023-04-09T02:04:42.021Z,28.80
2023-04-09T02:07:19.565Z,33.00
2023-04-09T02:09:49.447Z,32.90
2023-04-09T02:12:19.400Z,32.60
2023-04-09T02:14:50.440Z,30.30
2023-04-09T02:17:19.528Z,39.40
2023-04-09T02:19:48.307Z,31.50
2023-04-09T02:22:17.322Z,32.30
2023-04-09T02:24:46.701Z,32.80
2023-04-09T02:27:15.079Z,32.80
2023-04-09T02:29:43.689Z,30.90
2023-04-09T02:32:12.124Z,28.60
2023-04-09T02:34:40.656Z,29.30
2023-04-09T02:37:09.061Z,32.30
2023-04-09T02:39:37.396Z,33.70
2023-04-09T02:42:07.813Z,39.60
2023-04-09T02:44:36.201Z,34.20
2023-04-09T02:47:04.578Z,32.50
2023-04-09T02:49:32.949Z,34.10
2023-04-09T02:52:01.369Z,35.10
2023-04-09T02:54:29.741Z,34.30
2023-04-09T02:56:58.101Z,32.00
2023-04-09T02:59:26.448Z,36.70
2023-04-09T03:01:54.899Z,34.30
2023-04-09T03:04:23.414Z,35.00
2023-04-09T03:06:51.831Z,33.10
2023-04-09T03:09:20.159Z,33.20
2023-04-09T03:11:48.610Z,36.00
2023-04-09T03:14:16.949Z,33.40
2023-04-09T03:16:45.344Z,33.90
2023-04-09T03:19:13.719Z,36.60
2023-04-09T03:21:44.221Z,37.50
2023-04-09T03:24:12.717Z,35.10
2023-04-09T03:26:41.378Z,34.20
2023-04-09T03:29:09.737Z,34.20
2023-04-09T03:31:38.138Z,41.00
2023-04-09T03:34:06.620Z,32.50
2023-04-09T03:36:35.013Z,38.60
2023-04-09T03:39:03.406Z,40.50
2023-04-09T03:41:31.798Z,38.20
2023-04-09T03:44:00.359Z,37.30
2023-04-09T03:46:28.830Z,36.10
2023-04-09T03:48:57.305Z,35.60
2023-04-09T03:51:25.651Z,33.20
2023-04-09T03:53:53.969Z,34.00
2023-04-09T03:56:22.368Z,37.80
2023-04-09T03:58:51.026Z,39.80
2023-04-09T04:01:19.675Z,38.80
2023-04-09T04:03:48.266Z,37.00
2023-04-09T04:06:16.703Z,37.00
2023-04-09T04:08:45.077Z,37.70
2023-04-09T04:11:13.479Z,39.00
2023-04-09T04:13:42.034Z,39.10
2023-04-09T04:16:10.596Z,41.60
2023-04-09T04:18:39.035Z,39.40
2023-04-09T04:21:14.622Z,43.90
2023-04-09T04:23:43.166Z,41.90
2023-04-09T04:26:12.084Z,45.70
2023-04-09T04:28:41.138Z,39.70
2023-04-09T04:31:13.053Z,39.80
2023-04-09T04:33:42.764Z,43.30
2023-04-09T04:36:13.874Z,40.00
2023-04-09T04:38:42.226Z,38.10
2023-04-09T04:41:11.381Z,39.10
2023-04-09T04:43:41.483Z,42.00
2023-04-09T04:46:09.866Z,40.70
2023-04-09T04:48:38.253Z,44.20
2023-04-09T04:51:06.587Z,41.80
2023-04-09T04:53:34.918Z,48.30
2023-04-09T04:56:03.671Z,50.20
2023-04-09T04:58:32.071Z,45.60
2023-04-09T05:01:00.615Z,47.60
2023-04-09T05:03:29.069Z,43.70
2023-04-09T05:05:57.453Z,47.10
2023-04-09T05:08:25.823Z,46.70
2023-04-09T05:10:56.286Z,48.50
2023-04-09T05:13:24.945Z,47.60
2023-04-09T05:15:53.305Z,46.50
2023-04-09T05:18:21.672Z,47.60
2023-04-09T05:20:50.160Z,45.20
2023-04-09T05:23:18.548Z,48.90
2023-04-09T05:25:50.193Z,46.30
2023-04-09T05:28:18.546Z,42.80
2023-04-09T05:30:47.785Z,51.10
2023-04-09T05:33:16.122Z,45.50
2023-04-09T05:35:44.580Z,43.70
2023-04-09T05:38:13.892Z,43.60
2023-04-09T05:40:44.400Z,46.90
2023-04-09T05:43:12.775Z,52.30
2023-04-09T05:45:41.237Z,45.80
2023-04-09T05:48:09.733Z,47.90
2023-04-09T05:50:47.467Z,45.10
2023-04-09T05:53:23.229Z,44.70
2023-04-09T05:55:51.693Z,48.60
2023-04-09T05:58:20.072Z,50.60
2023-04-09T06:00:48.373Z,48.60
2023-04-09T06:03:16.874Z,50.80
2023-04-09T06:05:46.661Z,50.00
2023-04-09T06:08:15.167Z,55.20
2023-04-09T06:10:43.562Z,52.40
2023-04-09T06:13:12.051Z,59.00
2023-04-09T06:15:40.583Z,56.20
2023-04-09T06:18:09.095Z,58.90
2023-04-09T06:20:37.464Z,51.00
2023-04-09T06:23:05.873Z,55.40
2023-04-09T06:25:36.722Z,47.50
2023-04-09T06:28:05.434Z,52.10
2023-04-09T06:30:35.809Z,49.80
2023-04-09T06:33:04.193Z,55.50
2023-04-09T06:35:32.690Z,51.30
2023-04-09T06:38:01.125Z,49.40
2023-04-09T06:40:30.365Z,48.70
2023-04-09T06:42:58.778Z,52.20
2023-04-09T06:45:27.602Z,50.70
2023-04-09T06:47:56.047Z,50.40
2023-04-09T06:50:24.618Z,51.00
2023-04-09T06:52:53.176Z,49.70
2023-04-09T06:55:21.907Z,47.50
2023-04-09T06:57:50.389Z,44.70
2023-04-09T07:00:19.102Z,50.80
2023-04-09T07:02:47.732Z,50.10
2023-04-09T07:05:16.577Z,48.90
2023-04-09T07:07:45.048Z,46.70
2023-04-09T07:10:13.454Z,51.10
2023-04-09T07:12:41.844Z,48.40
2023-04-09T07:15:10.538Z,49.60
2023-04-09T07:17:38.945Z,49.20
2023-04-09T07:20:07.984Z,51.40
2023-04-09T07:22:37.065Z,52.80
2023-04-09T07:25:06.465Z,56.00
2023-04-09T07:27:35.227Z,47.40
2023-04-09T07:30:04.486Z,49.00
2023-04-09T07:32:33.022Z,50.50
2023-04-09T07:35:05.206Z,51.40
2023-04-09T07:37:33.637Z,50.00
2023-04-09T07:40:04.029Z,51.60
2023-04-09T07:42:32.726Z,50.70
2023-04-09T07:45:01.053Z,53.90
2023-04-09T07:47:29.581Z,50.50
2023-04-09T07:49:58.012Z,48.70
2023-04-09T07:52:26.413Z,50.00
2023-04-09T07:54:54.682Z,52.10
2023-04-09T07:57:23.009Z,53.30
2023-04-09T07:59:53.464Z,49.20
2023-04-09T08:02:23.214Z,48.10
2023-04-09T08:04:51.930Z,48.20
2023-04-09T08:07:20.703Z,50.60
2023-04-09T08:09:49.093Z,44.80
2023-04-09T08:12:17.817Z,49.00
2023-04-09T08:14:46.165Z,43.10
2023-04-09T08:17:14.601Z,46.00
2023-04-09T08:19:43.922Z,51.90
2023-04-09T08:22:12.273Z,53.40
2023-04-09T08:24:40.584Z,50.10
2023-04-09T08:27:08.974Z,52.00
2023-04-09T08:29:38.700Z,51.90
2023-04-09T08:32:07.104Z,51.00
2023-04-09T08:34:35.440Z,43.60
2023-04-09T08:37:03.902Z,49.90
2023-04-09T08:39:32.517Z,45.50
2023-04-09T08:42:03.734Z,49.40
2023-04-09T08:44:32.165Z,50.60
2023-04-09T08:47:01.216Z,45.90
2023-04-09T08:49:29.671Z,51.00
2023-04-09T08:51:58.099Z,42.80
2023-04-09T08:54:26.837Z,48.50
2023-04-09T08:56:56.434Z,48.50
2023-04-09T08:59:24.958Z,48.30
2023-04-09T09:02:11.735Z,48.70
2023-04-09T09:04:48.762Z,46.50
2023-04-09T09:07:17.678Z,47.40
2023-04-09T09:09:55.646Z,45.50
2023-04-09T09:12:35.276Z,47.50
2023-04-09T09:15:05.021Z,48.90
2023-04-09T09:17:35.721Z,52.40
2023-04-09T09:20:21.036Z,45.90
2023-04-09T09:22:55.618Z,47.80
2023-04-09T09:25:25.914Z,45.10
2023-04-09T09:27:54.969Z,46.00
2023-04-09T09:30:27.613Z,44.60
2023-04-09T09:33:12.299Z,48.50
2023-04-09T09:35:55.281Z,41.70
2023-04-09T09:38:23.676Z,46.30
2023-04-09T09:40:52.518Z,48.20
2023-04-09T09:43:21.520Z,51.70
2023-04-09T09:45:50.056Z,48.60
2023-04-09T09:48:18.486Z,46.30
2023-04-09T09:50:48.075Z,46.20
2023-04-09T09:53:22.717Z,47.00
2023-04-09T09:55:53.808Z,43.00
2023-04-09T09:58:27.098Z,41.10
2023-04-09T10:00:57.517Z,49.90
2023-04-09T10:03:30.330Z,42.60
2023-04-09T10:06:01.505Z,41.80
2023-04-09T10:08:34.105Z,45.30
2023-04-09T10:11:03.597Z,47.10
2023-04-09T10:13:40.251Z,43.60
2023-04-09T10:16:09.506Z,44.90
2023-04-09T10:18:38.024Z,45.00
2023-04-09T10:21:35.403Z,45.40
2023-04-09T10:24:08.047Z,42.70
2023-04-09T10:26:41.064Z,49.10
2023-04-09T10:29:15.311Z,46.10
2023-04-09T10:32:05.658Z,41.30
2023-04-09T10:34:40.943Z,43.20
2023-04-09T10:37:14.972Z,46.50
2023-04-09T10:39:48.384Z,47.20
2023-04-09T10:42:27.411Z,45.90
2023-04-09T10:45:14.902Z,40.80
2023-04-09T10:47:44.233Z,46.10
2023-04-09T10:50:26.653Z,42.20
2023-04-09T10:52:58.209Z,44.50
2023-04-09T10:55:37.980Z,46.70
2023-04-09T10:58:13.276Z,46.40
2023-04-09T11:00:47.149Z,47.00
2023-04-09T11:03:22.601Z,48.10
2023-04-09T11:06:02.245Z,47.20
2023-04-09T11:08:34.309Z,44.20
2023-04-09T11:11:03.586Z,49.30
2023-04-09T11:13:33.011Z,52.60
2023-04-09T11:16:04.176Z,44.70
2023-04-09T11:18:34.889Z,41.80
2023-04-09T11:21:04.541Z,48.50
2023-04-09T11:23:33.907Z,41.00
2023-04-09T11:26:02.739Z,43.20
2023-04-09T11:28:31.177Z,42.00
2023-04-09T11:30:59.547Z,40.30
2023-04-09T11:33:34.531Z,47.90
2023-04-09T11:36:06.861Z,46.00
2023-04-09T11:38:37.201Z,48.50
2023-04-09T11:41:05.818Z,47.50
2023-04-09T11:43:36.619Z,46.30
2023-04-09T11:46:07.947Z,45.00
2023-04-09T11:48:36.775Z,46.40
2023-04-09T11:51:09.968Z,41.30
2023-04-09T11:53:38.636Z,37.50
2023-04-09T11:56:07.233Z,37.60
2023-04-09T11:58:36.302Z,42.30
2023-04-09T12:01:04.972Z,40.10
2023-04-09T12:03:34.281Z,37.60
2023-04-09T12:06:05.094Z,39.40
2023-04-09T12:08:37.515Z,36.90
2023-04-09T12:11:15.474Z,37.30
2023-04-09T12:13:46.227Z,35.70
2023-04-09T12:16:15.001Z,36.00
2023-04-09T12:18:43.494Z,38.70
2023-04-09T12:21:11.978Z,38.90
2023-04-09T12:23:40.842Z,39.40
2023-04-09T12:26:09.180Z,38.80
2023-04-09T12:28:37.635Z,39.50
2023-04-09T12:31:10.550Z,42.80
2023-04-09T12:33:40.425Z,37.90
2023-04-09T12:36:08.876Z,41.00
2023-04-09T12:38:37.252Z,38.40
2023-04-09T12:41:05.732Z,37.60
2023-04-09T12:43:34.107Z,43.70
2023-04-09T12:46:02.539Z,39.10
2023-04-09T12:48:31.172Z,39.90
2023-04-09T12:50:59.487Z,38.50
2023-04-09T12:53:28.288Z,39.40
2023-04-09T12:55:57.104Z,34.60
2023-04-09T12:58:25.400Z,36.30
2023-04-09T13:00:54.552Z,40.80
2023-04-09T13:03:24.175Z,39.30
2023-04-09T13:05:52.708Z,41.90
2023-04-09T13:08:21.374Z,39.20
2023-04-09T13:10:49.738Z,38.40
2023-04-09T13:13:18.193Z,39.50
2023-04-09T13:15:46.505Z,48.20
2023-04-09T13:18:14.891Z,45.10
2023-04-09T13:20:43.287Z,40.90
2023-04-09T13:23:11.673Z,47.90
2023-04-09T13:25:40.259Z,50.20
2023-04-09T13:28:08.672Z,53.50
2023-04-09T13:30:37.114Z,53.70
2023-04-09T13:33:05.654Z,45.10
2023-04-09T13:35:34.192Z,43.90
2023-04-09T13:38:02.588Z,47.40
2023-04-09T13:40:31.153Z,49.40
2023-04-09T13:42:59.490Z,50.30
2023-04-09T13:45:27.786Z,39.20
2023-04-09T13:47:56.199Z,45.20
2023-04-09T13:50:24.543Z,44.80
2023-04-09T13:52:52.876Z,41.40
2023-04-09T13:55:21.259Z,38.00
2023-04-09T13:57:49.636Z,45.30
2023-04-09T14:00:19.864Z,42.00
2023-04-09T14:02:48.393Z,42.00
2023-04-09T14:05:17.074Z,42.30
2023-04-09T14:07:45.799Z,36.70
2023-04-09T14:10:14.143Z,38.90
2023-04-09T14:12:42.601Z,39.30
2023-04-09T14:15:11.264Z,36.50
2023-04-09T14:17:40.381Z,38.90
2023-04-09T14:20:09.198Z,40.20
2023-04-09T14:22:37.506Z,38.60
2023-04-09T14:25:06.639Z,37.90
2023-04-09T14:27:35.068Z,42.30
2023-04-09T14:30:04.383Z,45.10
2023-04-09T14:32:32.776Z,43.20
2023-04-09T14:35:02.055Z,44.90
2023-04-09T14:37:30.710Z,47.30
2023-04-09T14:39:59.034Z,40.70
2023-04-09T14:42:27.491Z,44.90
2023-04-09T14:44:56.090Z,45.30
2023-04-09T14:47:24.405Z,44.80
2023-04-09T14:49:52.686Z,44.40
2023-04-09T14:52:21.040Z,49.60
2023-04-09T14:54:49.349Z,45.60
2023-04-09T14:57:17.766Z,43.30
2023-04-09T14:59:46.177Z,37.10
2023-04-09T15:02:14.663Z,46.80
2023-04-09T15:04:43.271Z,44.50
2023-04-09T15:07:11.785Z,41.80
2023-04-09T15:09:40.220Z,40.40
2023-04-09T15:12:09.719Z,40.20
2023-04-09T15:14:38.052Z,47.50
2023-04-09T15:17:06.610Z,41.30
2023-04-09T15:19:35.081Z,42.10
2023-04-09T15:22:03.391Z,37.70
2023-04-09T15:24:31.889Z,37.90
2023-04-09T15:27:01.252Z,43.70
2023-04-09T15:29:29.596Z,43.00
2023-04-09T15:31:58.093Z,45.60
2023-04-09T15:34:26.631Z,47.80
2023-04-09T15:36:55.022Z,50.50
2023-04-09T15:39:24.702Z,45.30
2023-04-09T15:41:53.041Z,43.20
2023-04-09T15:44:21.444Z,51.00
2023-04-09T15:46:49.817Z,43.00
2023-04-09T15:49:19.536Z,41.30
2023-04-09T15:51:48.564Z,43.10
2023-04-09T15:54:16.970Z,44.10
2023-04-09T15:56:45.544Z,42.50
2023-04-09T15:59:13.978Z,43.30
2023-04-09T16:01:42.343Z,43.60
2023-04-09T16:04:11.095Z,44.50
2023-04-09T16:06:39.740Z,50.40
2023-04-09T16:09:08.234Z,41.90
2023-04-09T16:11:37.504Z,46.10
2023-04-09T16:14:05.992Z,45.70
2023-04-09T16:16:34.508Z,44.00
2023-04-09T16:19:03.051Z,44.80
2023-04-09T16:21:32.246Z,39.50
2023-04-09T16:24:00.878Z,40.20
2023-04-09T16:26:29.252Z,38.10
2023-04-09T16:29:02.963Z,41.40
2023-04-09T16:31:31.486Z,39.70
2023-04-09T16:34:00.146Z,41.20
2023-04-09T16:36:31.599Z,39.30
2023-04-09T16:38:59.967Z,39.70
2023-04-09T16:41:28.328Z,41.00
2023-04-09T16:43:56.659Z,43.70
2023-04-09T16:46:25.133Z,40.80
2023-04-09T16:48:53.753Z,41.70
2023-04-09T16:51:22.263Z,45.70
2023-04-09T16:53:50.739Z,42.80
2023-04-09T16:56:19.341Z,41.80
2023-04-09T16:58:47.925Z,42.20
2023-04-09T17:01:16.405Z,44.80
2023-04-09T17:03:44.994Z,47.20
2023-04-09T17:06:13.563Z,46.70
2023-04-09T17:08:42.240Z,44.30
2023-04-09T17:11:15.912Z,45.30
2023-04-09T17:13:44.457Z,46.50
2023-04-09T17:16:13.047Z,46.40
2023-04-09T17:18:41.464Z,46.10
2023-04-09T17:21:10.091Z,47.30
2023-04-09T17:23:38.487Z,46.80
2023-04-09T17:26:07.102Z,45.90
2023-04-09T17:28:35.481Z,44.70
2023-04-09T17:31:04.168Z,46.70
2023-04-09T17:33:32.758Z,46.40
2023-04-09T17:36:01.570Z,43.60
2023-04-09T17:38:31.721Z,42.00
2023-04-09T17:41:00.352Z,40.10
2023-04-09T17:43:28.696Z,41.90
2023-04-09T17:45:57.148Z,51.00
2023-04-09T17:48:25.918Z,43.10
2023-04-09T17:50:54.608Z,46.20
2023-04-09T17:53:23.196Z,50.70
2023-04-09T17:55:52.069Z,53.70
2023-04-09T17:58:20.607Z,51.60
2023-04-09T18:00:48.946Z,53.70
2023-04-09T18:03:17.892Z,58.90
2023-04-09T18:05:46.626Z,58.90
2023-04-09T18:08:15.003Z,58.00
2023-04-09T18:10:43.303Z,49.00
2023-04-09T18:13:11.612Z,47.90
2023-04-09T18:15:40.054Z,51.00
2023-04-09T18:18:08.377Z,49.70
2023-04-09T18:20:36.848Z,54.20
2023-04-09T18:23:05.154Z,53.20
2023-04-09T18:25:33.656Z,52.00
2023-04-09T18:28:02.080Z,48.70
2023-04-09T18:30:31.186Z,49.50
2023-04-09T18:32:59.922Z,51.70
2023-04-09T18:35:28.377Z,61.40
2023-04-09T18:37:56.798Z,58.80
2023-04-09T18:40:25.268Z,49.90
2023-04-09T18:42:53.985Z,46.30
2023-04-09T18:45:22.731Z,42.80
2023-04-09T18:47:51.168Z,44.80
2023-04-09T18:50:19.573Z,55.10
2023-04-09T18:52:47.903Z,57.30
2023-04-09T18:55:16.870Z,46.30
2023-04-09T18:57:45.266Z,50.20
2023-04-09T19:00:14.357Z,48.60
2023-04-09T19:02:42.943Z,47.80
2023-04-09T19:05:11.836Z,45.20
2023-04-09T19:07:40.246Z,46.40
2023-04-09T19:10:09.298Z,46.80
2023-04-09T19:12:38.308Z,49.80
2023-04-09T19:15:07.492Z,48.20
2023-04-09T19:17:35.917Z,47.50
2023-04-09T19:20:05.048Z,47.70
2023-04-09T19:22:33.549Z,47.90
2023-04-09T19:25:01.883Z,44.90
2023-04-09T19:27:30.491Z,44.60
2023-04-09T19:30:01.033Z,44.20
2023-04-09T19:32:29.418Z,45.40
2023-04-09T19:34:57.782Z,44.20
2023-04-09T19:37:28.119Z,42.50
2023-04-09T19:39:58.338Z,40.30
2023-04-09T19:42:28.729Z,41.60
2023-04-09T19:44:57.097Z,39.40
2023-04-09T19:47:27.618Z,46.00
2023-04-09T19:49:56.041Z,46.30
2023-04-09T19:52:25.074Z,41.40
2023-04-09T19:54:55.658Z,47.00
2023-04-09T19:57:24.015Z,45.20
2023-04-09T19:59:52.505Z,43.60
2023-04-09T20:02:21.150Z,42.70
2023-04-09T20:04:50.610Z,47.80
2023-04-09T20:07:18.903Z,50.80
2023-04-09T20:09:47.278Z,41.50
2023-04-09T20:12:15.726Z,49.50
2023-04-09T20:14:44.707Z,46.60
2023-04-09T20:17:13.513Z,48.30
2023-04-09T20:19:42.042Z,50.70
2023-04-09T20:22:10.421Z,47.00
2023-04-09T20:24:38.966Z,47.50
2023-04-09T20:27:07.283Z,56.80
2023-04-09T20:29:35.677Z,49.50
2023-04-09T20:32:04.036Z,48.60
2023-04-09T20:34:32.651Z,44.90
2023-04-09T20:37:01.688Z,46.80
2023-04-09T20:39:31.256Z,44.20
2023-04-09T20:41:59.663Z,47.60
2023-04-09T20:44:28.656Z,41.10
2023-04-09T20:46:57.045Z,52.10
2023-04-09T20:49:25.450Z,45.00
2023-04-09T20:51:53.835Z,44.30
2023-04-09T20:54:23.199Z,48.60
2023-04-09T20:56:51.785Z,42.30
2023-04-09T20:59:20.197Z,44.30
2023-04-09T21:01:48.953Z,46.90
2023-04-09T21:04:17.618Z,49.80
2023-04-09T21:06:46.074Z,49.50
2023-04-09T21:09:14.435Z,47.50
2023-04-09T21:11:42.839Z,50.20
2023-04-09T21:14:12.821Z,45.40
2023-04-09T21:16:41.492Z,42.40
2023-04-09T21:19:09.979Z,54.00
2023-04-09T21:21:38.388Z,50.30
2023-04-09T21:24:06.712Z,46.50
2023-04-09T21:26:49.291Z,51.70
2023-04-09T21:29:22.002Z,50.30
2023-04-09T21:31:50.344Z,48.60
2023-04-09T21:34:18.668Z,49.40
2023-04-09T21:36:47.254Z,45.80
2023-04-09T21:39:15.855Z,48.20
2023-04-09T21:41:44.188Z,43.60
2023-04-09T21:44:12.546Z,51.30
2023-04-09T21:46:41.785Z,44.10
2023-04-09T21:49:10.237Z,49.60
2023-04-09T21:51:39.081Z,46.00
2023-04-09T21:54:09.864Z,49.20
2023-04-09T21:56:38.934Z,44.10
2023-04-09T21:59:07.337Z,41.30
2023-04-09T22:01:35.749Z,43.20
2023-04-09T22:04:04.521Z,43.90
2023-04-09T22:06:33.204Z,39.70
2023-04-09T22:09:01.846Z,41.70
2023-04-09T22:11:30.872Z,45.80
2023-04-09T22:13:59.240Z,40.30
2023-04-09T22:16:27.856Z,44.70
2023-04-09T22:18:56.875Z,46.30
2023-04-09T22:21:26.590Z,43.80
2023-04-09T22:23:55.189Z,46.60
2023-04-09T22:26:23.978Z,43.10
2023-04-09T22:28:52.471Z,44.60
2023-04-09T22:31:21.605Z,46.70
2023-04-09T22:33:50.083Z,45.40
2023-04-09T22:36:19.086Z,48.30
2023-04-09T22:38:47.446Z,44.10
2023-04-09T22:41:17.526Z,45.40
2023-04-09T22:43:46.143Z,45.00
2023-04-09T22:46:14.794Z,44.50
2023-04-09T22:48:45.011Z,43.70
2023-04-09T22:51:14.094Z,43.70
2023-04-09T22:53:42.687Z,49.40
2023-04-09T22:56:11.074Z,41.00
2023-04-09T22:58:40.083Z,47.80
2023-04-09T23:01:08.521Z,44.00
2023-04-09T23:03:37.029Z,47.60
2023-04-09T23:06:06.062Z,52.40
2023-04-09T23:08:34.371Z,53.30
2023-04-09T23:11:02.752Z,57.30
2023-04-09T23:13:31.312Z,55.50
2023-04-09T23:15:59.649Z,51.10
2023-04-09T23:18:27.972Z,45.00
2023-04-09T23:20:56.343Z,48.00
2023-04-09T23:23:24.783Z,44.70
2023-04-09T23:25:53.671Z,46.10
2023-04-09T23:28:21.938Z,42.70
2023-04-09T23:30:50.364Z,47.70
2023-04-09T23:33:19.626Z,47.40
2023-04-09T23:35:48.107Z,51.40
2023-04-09T23:38:16.577Z,48.30
2023-04-09T23:40:47.253Z,45.40
2023-04-09T23:43:15.963Z,49.50
2023-04-09T23:45:44.663Z,47.80
2023-04-09T23:48:13.022Z,53.90
2023-04-09T23:50:42.147Z,52.70
2023-04-09T23:53:11.026Z,51.20
2023-04-09T23:55:41.360Z,53.20
2023-04-09T23:58:09.991Z,60.00
